Time;durP1;ratioP1;P1;durP2;ratioP2;P2;SDS_P1;SDS_P2;PMS_P1;PMS_P2;Temp;Humidity;BMP_temperature;BMP_pressure;BME280_temperature;BME280_humidity;BME280_pressure;Samples;Min_cycle;Max_cycle;Signal;HPM_P1;HPM_P2
2023/04/21 00:00:08;;;;;;;0.70;0.70;;;2.40;99.90;;;;;;5013211;28;20199;-69
2023/04/21 00:02:38;;;;;;;0.70;0.70;;;2.30;99.90;;;;;;5013903;28;20307;-69
2023/04/21 00:05:08;;;;;;;0.80;0.80;;;2.30;99.90;;;;;;5027266;28;20239;-70
2023/04/21 00:07:35;;;;;;;0.60;0.60;;;2.30;99.90;;;;;;5033811;28;20653;-69
2023/04/21 00:10:01;;;;;;;0.85;0.85;;;2.30;99.90;;;;;;5034113;28;20197;-69
2023/04/21 00:12:27;;;;;;;0.80;0.80;;;2.20;99.90;;;;;;5033814;28;20194;-69
2023/04/21 00:14:52;;;;;;;0.80;0.80;;;2.20;99.90;;;;;;5034092;28;20213;-70
2023/04/21 00:17:18;;;;;;;0.77;0.77;;;2.20;99.90;;;;;;5033878;28;20665;-69
2023/04/21 00:19:44;;;;;;;0.73;0.73;;;2.10;99.90;;;;;;5016054;28;20203;-69
2023/04/21 00:22:13;;;;;;;0.80;0.80;;;2.10;99.90;;;;;;5015974;28;20591;-69
2023/04/21 00:24:39;;;;;;;0.70;0.70;;;2.10;99.90;;;;;;5033736;28;20202;-69
2023/04/21 00:27:05;;;;;;;0.80;0.80;;;2.10;99.90;;;;;;5033694;28;20389;-69
2023/04/21 00:29:31;;;;;;;0.70;0.70;;;2.00;99.90;;;;;;5033561;28;20198;-69
2023/04/21 00:31:56;;;;;;;0.80;0.80;;;2.00;99.90;;;;;;5015810;28;20204;-69
2023/04/21 00:34:22;;;;;;;0.98;0.98;;;1.90;99.90;;;;;;5033256;28;20194;-69
2023/04/21 00:36:48;;;;;;;0.80;0.80;;;1.90;99.90;;;;;;5033523;28;20201;-69
2023/04/21 00:39:13;;;;;;;0.70;0.70;;;1.80;99.90;;;;;;5033523;28;20277;-69
2023/04/21 00:41:40;;;;;;;0.70;0.70;;;1.80;99.90;;;;;;5032953;28;20214;-69
2023/04/21 00:44:09;;;;;;;0.80;0.80;;;1.70;99.90;;;;;;5033324;28;20190;-70
2023/04/21 00:46:35;;;;;;;0.70;0.70;;;1.60;99.90;;;;;;5032974;28;20259;-69
2023/04/21 00:49:04;;;;;;;0.70;0.70;;;1.60;99.90;;;;;;5033339;28;20704;-69
2023/04/21 00:51:32;;;;;;;0.70;0.70;;;1.60;99.90;;;;;;5031716;28;20562;-69
2023/04/21 00:53:59;;;;;;;0.70;0.70;;;1.50;99.90;;;;;;5015407;28;20209;-70
2023/04/21 00:56:26;;;;;;;0.70;0.70;;;1.50;99.90;;;;;;5032974;28;20201;-69
2023/04/21 00:58:53;;;;;;;0.73;0.73;;;1.40;99.90;;;;;;5033214;28;20669;-69
2023/04/21 01:01:19;;;;;;;0.80;0.80;;;1.30;99.90;;;;;;5033317;28;20703;-73
2023/04/21 01:03:54;;;;;;;0.70;0.70;;;1.30;99.90;;;;;;5053824;22;20236;-70
2023/04/21 01:06:20;;;;;;;0.80;0.80;;;1.20;99.90;;;;;;5073646;28;20214;-69
2023/04/21 01:08:46;;;;;;;0.68;0.68;;;1.20;99.90;;;;;;5073524;28;20200;-69
2023/04/21 01:11:12;;;;;;;0.60;0.60;;;1.10;99.90;;;;;;5073359;28;20192;-68
2023/04/21 01:13:39;;;;;;;0.73;0.73;;;1.10;99.90;;;;;;5073167;28;20212;-68
2023/04/21 01:16:06;;;;;;;0.80;0.80;;;1.00;99.90;;;;;;5073364;28;20196;-69
2023/04/21 01:18:32;;;;;;;0.82;0.82;;;1.00;99.90;;;;;;5073265;28;20192;-68
2023/04/21 01:20:58;;;;;;;0.80;0.80;;;1.00;99.90;;;;;;5073213;28;20196;-68
2023/04/21 01:23:24;;;;;;;0.70;0.70;;;1.00;99.90;;;;;;5072467;28;20602;-69
2023/04/21 01:25:52;;;;;;;0.80;0.80;;;1.00;99.90;;;;;;5073281;28;20219;-69
2023/04/21 01:28:25;;;;;;;0.60;0.60;;;0.90;99.90;;;;;;5055563;28;20292;-69
2023/04/21 01:30:51;;;;;;;0.70;0.70;;;0.90;99.90;;;;;;5054803;28;20197;-68
2023/04/21 01:33:19;;;;;;;0.70;0.70;;;1.00;99.90;;;;;;5072984;28;20192;-68
2023/04/21 01:35:45;;;;;;;0.70;0.70;;;1.00;99.90;;;;;;5073288;28;20188;-68
2023/04/21 01:38:11;;;;;;;0.70;0.70;;;1.00;99.90;;;;;;5072897;28;20227;-68
2023/04/21 01:40:38;;;;;;;0.70;0.70;;;1.00;99.90;;;;;;5054840;28;20228;-68
2023/04/21 01:43:04;;;;;;;0.77;0.77;;;0.90;99.90;;;;;;5072990;28;20238;-68
2023/04/21 01:45:31;;;;;;;0.75;0.75;;;0.90;99.90;;;;;;5072589;28;20647;-68
2023/04/21 01:47:56;;;;;;;0.68;0.68;;;0.90;99.90;;;;;;5072624;28;20527;-68
2023/04/21 01:50:22;;;;;;;0.95;0.95;;;0.90;99.90;;;;;;5072774;28;20200;-69
2023/04/21 01:52:48;;;;;;;0.80;0.80;;;0.80;99.90;;;;;;5054999;28;20216;-68
2023/04/21 01:55:13;;;;;;;0.70;0.70;;;0.80;99.90;;;;;;5072856;28;20189;-68
2023/04/21 01:57:40;;;;;;;0.80;0.80;;;0.80;99.90;;;;;;5072376;28;20671;-68
2023/04/21 02:00:06;;;;;;;1.45;1.35;;;0.80;99.90;;;;;;5054819;28;20312;-68
2023/04/21 02:02:32;;;;;;;0.80;0.80;;;0.70;99.90;;;;;;5053736;28;20204;-68
2023/04/21 02:04:58;;;;;;;0.60;0.60;;;0.70;99.90;;;;;;5071880;28;20752;-68
2023/04/21 02:07:25;;;;;;;0.70;0.70;;;0.70;99.90;;;;;;5072589;28;20220;-68
2023/04/21 02:09:51;;;;;;;0.70;0.70;;;0.70;99.90;;;;;;5072854;28;20663;-67
2023/04/21 02:12:16;;;;;;;1.13;1.08;;;0.70;99.90;;;;;;5072730;28;20197;-68
2023/04/21 02:14:42;;;;;;;2.35;1.38;;;0.60;99.90;;;;;;5072490;28;20278;-68
2023/04/21 02:17:08;;;;;;;0.77;0.77;;;0.60;99.90;;;;;;5072557;28;20208;-68
2023/04/21 02:19:34;;;;;;;0.80;0.80;;;0.50;99.90;;;;;;5054587;28;20247;-68
2023/04/21 02:22:00;;;;;;;0.80;0.80;;;0.50;99.90;;;;;;5072702;28;20551;-68
2023/04/21 02:24:25;;;;;;;0.80;0.80;;;0.50;99.90;;;;;;5072420;28;20223;-68
2023/04/21 02:26:51;;;;;;;0.88;0.88;;;0.50;99.90;;;;;;5072762;28;20189;-68
2023/04/21 02:29:17;;;;;;;0.70;0.70;;;0.50;99.90;;;;;;5072655;28;20189;-68
2023/04/21 02:31:43;;;;;;;1.73;1.63;;;0.40;99.90;;;;;;5072393;28;20253;-68
2023/04/21 02:34:08;;;;;;;0.70;0.70;;;0.40;99.90;;;;;;5072674;28;20207;-68
2023/04/21 02:36:34;;;;;;;0.70;0.70;;;0.40;99.90;;;;;;5072286;28;20200;-68
2023/04/21 02:39:00;;;;;;;0.77;0.77;;;0.40;99.90;;;;;;5072485;28;20201;-68
2023/04/21 02:41:25;;;;;;;0.88;0.88;;;0.30;99.90;;;;;;5053474;28;20304;-68
2023/04/21 02:43:51;;;;;;;0.80;0.80;;;0.30;99.90;;;;;;5072360;28;20197;-68
2023/04/21 02:46:17;;;;;;;0.70;0.70;;;0.30;99.90;;;;;;5072499;28;20213;-68
2023/04/21 02:48:42;;;;;;;0.80;0.80;;;0.30;99.90;;;;;;5072345;28;20226;-68
2023/04/21 02:51:12;;;;;;;0.75;0.75;;;0.30;99.90;;;;;;5072340;28;20192;-68
2023/04/21 02:53:39;;;;;;;0.80;0.80;;;0.30;99.90;;;;;;5071964;28;20264;-68
2023/04/21 02:56:07;;;;;;;0.90;0.90;;;0.30;99.90;;;;;;5072218;28;20189;-68
2023/04/21 02:58:34;;;;;;;0.70;0.70;;;0.30;99.90;;;;;;5074469;28;20189;-68
2023/04/21 03:01:01;;;;;;;0.80;0.80;;;0.20;99.90;;;;;;5075597;28;20559;-68
2023/04/21 03:03:27;;;;;;;0.70;0.70;;;0.20;99.90;;;;;;5058444;28;20262;-68
2023/04/21 03:06:00;;;;;;;0.70;0.70;;;0.20;99.90;;;;;;5075913;28;20193;-68
2023/04/21 03:08:26;;;;;;;0.82;0.82;;;0.10;99.90;;;;;;5075579;28;20728;-68
2023/04/21 03:10:52;;;;;;;0.65;0.65;;;0.10;99.90;;;;;;5075766;28;20189;-70
2023/04/21 03:13:18;;;;;;;0.80;0.80;;;0.10;99.90;;;;;;5075540;28;20189;-68
2023/04/21 03:15:43;;;;;;;0.80;0.80;;;0.10;99.90;;;;;;5075596;28;20228;-69
2023/04/21 03:18:10;;;;;;;0.75;0.75;;;0.10;99.90;;;;;;5075502;28;20193;-68
2023/04/21 03:20:36;;;;;;;0.75;0.75;;;0.10;99.90;;;;;;5075151;28;20228;-68
2023/04/21 03:23:01;;;;;;;0.80;0.80;;;0.10;99.90;;;;;;5075066;28;20687;-68
2023/04/21 03:25:27;;;;;;;0.90;0.90;;;0.10;99.90;;;;;;5074936;28;20255;-68
2023/04/21 03:27:53;;;;;;;0.80;0.80;;;0.20;99.90;;;;;;5057406;28;20288;-69
2023/04/21 03:30:20;;;;;;;0.82;0.82;;;0.20;99.90;;;;;;5075179;28;20217;-68
2023/04/21 03:32:46;;;;;;;0.80;0.80;;;0.20;99.90;;;;;;5075041;28;20588;-68
2023/04/21 03:35:11;;;;;;;0.70;0.70;;;0.20;99.90;;;;;;5074967;28;20211;-69
2023/04/21 03:37:37;;;;;;;0.80;0.80;;;0.20;99.90;;;;;;5075024;28;20656;-68
2023/04/21 03:40:07;;;;;;;0.70;0.70;;;0.20;99.90;;;;;;5075007;28;20299;-68
2023/04/21 03:42:36;;;;;;;0.70;0.70;;;0.20;99.90;;;;;;5074619;28;20209;-68
2023/04/21 03:45:06;;;;;;;0.60;0.60;;;0.20;99.90;;;;;;5074993;28;20189;-68
2023/04/21 03:47:32;;;;;;;0.80;0.80;;;0.20;99.90;;;;;;5074626;28;20213;-68
2023/04/21 03:49:58;;;;;;;0.82;0.82;;;0.30;99.90;;;;;;5074574;28;20274;-68
2023/04/21 03:52:24;;;;;;;0.90;0.90;;;0.30;99.90;;;;;;5074669;28;20204;-68
2023/04/21 03:54:50;;;;;;;0.88;0.88;;;0.30;99.90;;;;;;5056665;28;20200;-68
2023/04/21 03:57:16;;;;;;;0.90;0.90;;;0.30;99.90;;;;;;5074557;28;20196;-68
2023/04/21 03:59:42;;;;;;;0.90;0.90;;;0.40;99.90;;;;;;5074464;28;20201;-68
2023/04/21 04:02:08;;;;;;;0.80;0.80;;;0.50;99.90;;;;;;5074133;28;20621;-68
2023/04/21 04:04:35;;;;;;;0.80;0.80;;;0.50;99.90;;;;;;5073305;28;20232;-68
2023/04/21 04:07:01;;;;;;;0.90;0.90;;;0.60;99.90;;;;;;5074330;28;20192;-68
2023/04/21 04:09:26;;;;;;;0.70;0.70;;;0.70;99.90;;;;;;5073317;28;20599;-68
2023/04/21 04:11:52;;;;;;;0.63;0.63;;;0.90;99.90;;;;;;5057207;28;20200;-69
2023/04/21 04:14:18;;;;;;;0.80;0.80;;;1.00;99.90;;;;;;5074396;28;20189;-69
2023/04/21 04:16:44;;;;;;;0.80;0.80;;;1.00;99.90;;;;;;5056412;28;20203;-69
2023/04/21 04:19:10;;;;;;;0.63;0.63;;;1.20;99.90;;;;;;5073887;28;20213;-69
2023/04/21 04:21:36;;;;;;;0.80;0.80;;;1.20;99.90;;;;;;5055772;28;20621;-69
2023/04/21 04:24:04;;;;;;;0.80;0.80;;;1.30;99.90;;;;;;5073850;28;20221;-69
2023/04/21 04:26:32;;;;;;;0.70;0.70;;;1.40;99.90;;;;;;5073941;28;20196;-68
2023/04/21 04:28:59;;;;;;;0.80;0.80;;;1.50;99.90;;;;;;5074085;28;20193;-68
2023/04/21 04:31:25;;;;;;;0.80;0.80;;;1.70;99.90;;;;;;5074279;28;20197;-69
2023/04/21 04:33:51;;;;;;;0.80;0.80;;;1.80;99.90;;;;;;5074416;28;20198;-69
2023/04/21 04:36:17;;;;;;;0.73;0.73;;;2.00;99.90;;;;;;5073851;28;20197;-68
2023/04/21 04:38:44;;;;;;;0.80;0.80;;;2.20;99.90;;;;;;5055023;28;20231;-68
2023/04/21 04:41:11;;;;;;;0.75;0.75;;;2.40;99.90;;;;;;5055438;28;20299;-68
2023/04/21 04:43:40;;;;;;;0.70;0.70;;;2.60;99.90;;;;;;5073449;28;20197;-69
2023/04/21 04:46:08;;;;;;;0.80;0.80;;;2.90;99.90;;;;;;5072893;28;20196;-68
2023/04/21 04:48:34;;;;;;;1.13;0.90;;;3.00;99.90;;;;;;5073635;28;20247;-69
2023/04/21 04:51:00;;;;;;;0.88;0.88;;;3.10;99.90;;;;;;5073550;28;20188;-68
2023/04/21 04:53:27;;;;;;;0.70;0.70;;;3.20;99.90;;;;;;5073365;28;20624;-69
2023/04/21 04:55:53;;;;;;;0.85;0.82;;;3.30;99.90;;;;;;5073418;28;20212;-68
2023/04/21 04:58:19;;;;;;;0.80;0.80;;;3.40;99.90;;;;;;5073501;28;20217;-68
2023/04/21 05:00:45;;;;;;;0.80;0.80;;;3.60;99.90;;;;;;5073186;28;20654;-68
2023/04/21 05:03:11;;;;;;;0.70;0.70;;;3.70;99.90;;;;;;5073160;28;20196;-68
2023/04/21 05:05:37;;;;;;;0.70;0.70;;;3.80;99.90;;;;;;5072706;28;20220;-68
2023/04/21 05:08:02;;;;;;;0.80;0.80;;;4.00;99.90;;;;;;5073437;28;20184;-68
2023/04/21 05:10:28;;;;;;;0.80;0.80;;;4.20;99.90;;;;;;5073482;28;20200;-68
2023/04/21 05:12:54;;;;;;;4.88;3.08;;;4.40;99.90;;;;;;5073395;28;20201;-68
2023/04/21 05:15:21;;;;;;;0.77;0.77;;;4.50;99.90;;;;;;5072936;28;20286;-69
2023/04/21 05:17:47;;;;;;;0.80;0.80;;;4.80;99.90;;;;;;5073151;28;20199;-68
2023/04/21 05:20:14;;;;;;;0.70;0.70;;;5.10;99.90;;;;;;5073133;28;20558;-68
2023/04/21 05:22:40;;;;;;;0.70;0.70;;;5.30;99.90;;;;;;5072166;28;20300;-68
2023/04/21 05:25:07;;;;;;;0.70;0.70;;;5.50;99.90;;;;;;5072555;28;20196;-68
2023/04/21 05:27:33;;;;;;;0.70;0.70;;;5.70;99.90;;;;;;5054778;28;20196;-68
2023/04/21 05:29:59;;;;;;;0.70;0.70;;;5.90;99.90;;;;;;5072869;28;20537;-68
2023/04/21 05:32:25;;;;;;;0.70;0.70;;;6.10;99.90;;;;;;5072801;28;20621;-68
2023/04/21 05:34:51;;;;;;;0.70;0.70;;;6.30;99.90;;;;;;5072836;28;20236;-68
2023/04/21 05:37:16;;;;;;;0.60;0.60;;;6.40;99.90;;;;;;5054836;28;20204;-68
2023/04/21 05:39:42;;;;;;;1.38;1.27;;;6.60;99.90;;;;;;5054746;28;20915;-68
2023/04/21 05:42:11;;;;;;;0.80;0.80;;;6.70;99.90;;;;;;5072904;28;20216;-68
2023/04/21 05:44:37;;;;;;;0.70;0.70;;;6.90;99.90;;;;;;5073061;28;20722;-68
2023/04/21 05:47:06;;;;;;;0.70;0.70;;;7.00;99.90;;;;;;5072859;28;20188;-68
2023/04/21 05:49:32;;;;;;;0.80;0.80;;;7.10;99.90;;;;;;5072397;28;20207;-68
2023/04/21 05:51:58;;;;;;;0.60;0.60;;;7.20;99.90;;;;;;5072789;28;20277;-69
2023/04/21 05:54:24;;;;;;;0.90;0.90;;;7.40;99.90;;;;;;5072371;28;20605;-69
2023/04/21 05:56:50;;;;;;;0.70;0.70;;;7.50;99.90;;;;;;5072682;28;20271;-68
2023/04/21 05:59:16;;;;;;;0.70;0.70;;;7.60;99.90;;;;;;5072741;28;20300;-68
2023/04/21 06:01:42;;;;;;;0.70;0.70;;;7.70;99.90;;;;;;5072221;28;20671;-68
2023/04/21 06:04:08;;;;;;;0.65;0.65;;;7.90;99.90;;;;;;5071634;28;20251;-68
2023/04/21 06:06:34;;;;;;;0.70;0.70;;;7.90;99.90;;;;;;5072263;28;20224;-68
2023/04/21 06:09:00;;;;;;;0.60;0.60;;;8.00;99.90;;;;;;5072688;28;20268;-68
2023/04/21 06:11:26;;;;;;;0.60;0.60;;;8.00;99.90;;;;;;5072356;28;20196;-68
2023/04/21 06:13:53;;;;;;;0.70;0.70;;;8.20;99.90;;;;;;5072563;28;20196;-68
2023/04/21 06:16:19;;;;;;;0.60;0.60;;;8.30;99.90;;;;;;5072315;28;20196;-68
2023/04/21 06:18:45;;;;;;;0.70;0.70;;;8.50;99.90;;;;;;5072609;28;20200;-68
2023/04/21 06:21:11;;;;;;;0.60;0.60;;;8.60;99.90;;;;;;5072445;28;20196;-68
2023/04/21 06:23:36;;;;;;;0.70;0.70;;;8.70;99.90;;;;;;5071946;28;20250;-68
2023/04/21 06:26:05;;;;;;;0.60;0.60;;;8.80;99.90;;;;;;5054519;28;20193;-68
2023/04/21 06:28:32;;;;;;;0.60;0.60;;;8.90;99.90;;;;;;5072320;28;20196;-69
2023/04/21 06:30:59;;;;;;;0.60;0.60;;;9.10;99.90;;;;;;5072187;28;20197;-68
2023/04/21 06:33:25;;;;;;;0.70;0.70;;;9.30;99.90;;;;;;5074460;28;20181;-69
2023/04/21 06:35:52;;;;;;;0.60;0.60;;;9.50;99.90;;;;;;5076216;28;20249;-69
2023/04/21 06:38:17;;;;;;;0.70;0.70;;;9.60;99.90;;;;;;5076206;28;20219;-68
2023/04/21 06:40:43;;;;;;;0.65;0.65;;;9.80;99.90;;;;;;5075902;28;20268;-69
2023/04/21 06:43:09;;;;;;;0.70;0.70;;;10.00;99.90;;;;;;5075791;28;20208;-69
2023/04/21 06:45:35;;;;;;;0.60;0.60;;;10.20;99.90;;;;;;5075543;28;20200;-69
2023/04/21 06:48:01;;;;;;;0.60;0.60;;;10.30;99.90;;;;;;5076122;28;20197;-68
2023/04/21 06:50:27;;;;;;;0.60;0.60;;;10.50;99.90;;;;;;5075889;28;20185;-69
2023/04/21 06:52:52;;;;;;;0.60;0.60;;;10.50;99.90;;;;;;5076135;28;20659;-68
2023/04/21 06:55:18;;;;;;;0.50;0.50;;;10.60;99.90;;;;;;5075838;28;20220;-68
2023/04/21 06:57:44;;;;;;;0.60;0.60;;;10.70;99.90;;;;;;5075525;28;20671;-69
2023/04/21 07:00:11;;;;;;;0.60;0.60;;;10.80;99.90;;;;;;5076003;28;20276;-69
2023/04/21 07:02:36;;;;;;;0.60;0.60;;;11.00;99.90;;;;;;5075404;28;20235;-69
2023/04/21 07:05:03;;;;;;;0.60;0.60;;;11.10;99.90;;;;;;5053866;28;20699;-69
2023/04/21 07:07:28;;;;;;;0.60;0.60;;;11.20;99.90;;;;;;5055457;28;20190;-69
2023/04/21 07:09:54;;;;;;;0.52;0.52;;;11.20;99.90;;;;;;5055753;28;20280;-69
2023/04/21 07:12:20;;;;;;;0.50;0.50;;;11.40;99.90;;;;;;5054137;28;20198;-69
2023/04/21 07:14:46;;;;;;;0.52;0.52;;;11.50;99.90;;;;;;5055601;28;20216;-69
2023/04/21 07:17:12;;;;;;;0.50;0.50;;;11.70;99.90;;;;;;5055424;28;20196;-69
2023/04/21 07:19:38;;;;;;;0.50;0.50;;;11.80;99.90;;;;;;5069254;28;20211;-69
2023/04/21 07:22:04;;;;;;;0.50;0.50;;;12.00;99.90;;;;;;5074877;28;20288;-69
2023/04/21 07:24:30;;;;;;;0.45;0.45;;;12.10;99.90;;;;;;5075091;28;20626;-69
2023/04/21 07:26:56;;;;;;;0.50;0.50;;;12.20;99.90;;;;;;5075170;28;20236;-69
2023/04/21 07:29:22;;;;;;;0.43;0.43;;;12.30;99.90;;;;;;5057172;28;20204;-70
2023/04/21 07:31:48;;;;;;;0.50;0.50;;;12.50;99.90;;;;;;5075304;28;20216;-69
2023/04/21 07:34:14;;;;;;;0.60;0.60;;;12.80;99.90;;;;;;5075197;28;20224;-69
2023/04/21 07:36:40;;;;;;;0.52;0.52;;;12.90;99.90;;;;;;5075073;28;20239;-69
2023/04/21 07:39:05;;;;;;;0.60;0.60;;;13.00;99.90;;;;;;5075336;28;20205;-70
2023/04/21 07:41:31;;;;;;;0.88;0.82;;;13.20;99.90;;;;;;5074888;28;20565;-69
2023/04/21 07:43:57;;;;;;;1.15;0.60;;;13.20;99.90;;;;;;5074152;28;20196;-69
2023/04/21 07:46:28;;;;;;;0.93;0.93;;;13.40;99.90;;;;;;5074454;28;20185;-70
2023/04/21 07:48:55;;;;;;;0.40;0.40;;;13.60;99.90;;;;;;5074994;28;20223;-69
2023/04/21 07:51:22;;;;;;;0.40;0.40;;;13.70;99.90;;;;;;5056762;28;20292;-69
2023/04/21 07:53:48;;;;;;;0.40;0.40;;;13.80;99.90;;;;;;5075103;28;20193;-70
2023/04/21 07:56:13;;;;;;;0.40;0.40;;;13.90;99.90;;;;;;5074530;28;20232;-69
2023/04/21 07:58:39;;;;;;;0.40;0.40;;;14.10;99.90;;;;;;5074496;28;20189;-70
2023/04/21 08:01:05;;;;;;;0.47;0.47;;;14.30;99.90;;;;;;5074645;28;20189;-69
2023/04/21 08:03:30;;;;;;;0.32;0.32;;;14.30;99.90;;;;;;5073215;28;20255;-69
2023/04/21 08:05:56;;;;;;;0.57;0.57;;;14.60;99.90;;;;;;5074569;28;20691;-69
2023/04/21 08:08:22;;;;;;;0.40;0.40;;;14.90;99.90;;;;;;5074367;28;20192;-70
2023/04/21 08:10:48;;;;;;;0.40;0.40;;;15.00;99.90;;;;;;5074337;28;20189;-70
2023/04/21 08:13:14;;;;;;;0.45;0.45;;;15.20;99.90;;;;;;5074349;28;20196;-70
2023/04/21 08:15:39;;;;;;;0.50;0.50;;;15.40;99.90;;;;;;5073987;28;20324;-70
2023/04/21 08:18:05;;;;;;;0.40;0.40;;;15.50;99.90;;;;;;5074378;28;20685;-70
2023/04/21 08:20:31;;;;;;;0.45;0.45;;;15.50;99.90;;;;;;5074007;28;20220;-70
2023/04/21 08:22:57;;;;;;;0.55;0.55;;;15.90;99.90;;;;;;5067241;28;20236;-70
2023/04/21 08:25:24;;;;;;;0.35;0.35;;;16.20;99.90;;;;;;5073166;28;20276;-70
2023/04/21 08:27:50;;;;;;;0.30;0.30;;;16.50;99.90;;;;;;5056264;28;20193;-70
2023/04/21 08:30:17;;;;;;;0.30;0.30;;;16.70;99.90;;;;;;5074151;28;20281;-70
2023/04/21 08:32:43;;;;;;;0.60;0.55;;;17.20;99.90;;;;;;5056041;28;20346;-70
2023/04/21 08:35:09;;;;;;;0.25;0.25;;;17.30;99.90;;;;;;5074025;28;20189;-70
2023/04/21 08:37:36;;;;;;;0.75;0.63;;;17.40;99.90;;;;;;5073896;28;20193;-70
2023/04/21 08:40:04;;;;;;;0.28;0.28;;;17.60;99.90;;;;;;5073636;28;20196;-70
2023/04/21 08:42:32;;;;;;;0.35;0.35;;;17.80;99.90;;;;;;5073009;28;20675;-70
2023/04/21 08:44:58;;;;;;;0.22;0.22;;;17.90;99.90;;;;;;5055616;28;20566;-71
2023/04/21 08:47:24;;;;;;;0.47;0.47;;;18.00;99.90;;;;;;5073470;28;20275;-70
2023/04/21 08:49:51;;;;;;;0.30;0.30;;;18.30;98.90;;;;;;5073587;28;20246;-70
2023/04/21 08:52:17;;;;;;;0.35;0.35;;;18.50;99.00;;;;;;5073689;28;20278;-71
2023/04/21 08:54:43;;;;;;;0.30;0.30;;;18.60;98.70;;;;;;5074174;28;20671;-70
2023/04/21 08:57:08;;;;;;;0.40;0.40;;;18.90;98.60;;;;;;5073759;28;20193;-70
2023/04/21 08:59:34;;;;;;;0.20;0.20;;;19.00;98.10;;;;;;5073247;28;20212;-71
2023/04/21 09:02:14;;;;;;;0.30;0.30;;;18.90;96.50;;;;;;5072743;28;20697;-71
2023/04/21 09:04:53;;;;;;;0.20;0.20;;;18.90;94.80;;;;;;5072492;28;20632;-70
2023/04/21 09:07:36;;;;;;;0.20;0.20;;;18.90;96.30;;;;;;5055197;28;20196;-70
2023/04/21 09:10:03;;;;;;;0.40;0.40;;;19.40;96.40;;;;;;5073321;28;20663;-71
2023/04/21 09:12:29;;;;;;;0.28;0.28;;;19.70;93.80;;;;;;5072499;28;20231;-70
2023/04/21 09:14:57;;;;;;;0.30;0.30;;;19.70;93.90;;;;;;5055420;28;20574;-71
2023/04/21 09:17:31;;;;;;;0.68;0.68;;;19.90;94.00;;;;;;5055292;28;20196;-71
2023/04/21 09:19:58;;;;;;;0.45;0.45;;;20.40;94.30;;;;;;5073148;28;20209;-71
2023/04/21 09:22:28;;;;;;;1.45;0.22;;;20.50;92.90;;;;;;5072188;28;20208;-70
2023/04/21 09:25:01;;;;;;;0.30;0.30;;;20.60;93.00;;;;;;5055292;28;20284;-70
2023/04/21 09:27:27;;;;;;;0.25;0.25;;;21.10;91.60;;;;;;5072638;28;20711;-71
2023/04/21 09:29:53;;;;;;;0.20;0.20;;;21.40;89.20;;;;;;5068120;28;20201;-70
2023/04/21 09:32:19;;;;;;;1.40;0.77;;;21.30;90.20;;;;;;5035038;28;20204;-71
2023/04/21 09:34:45;;;;;;;0.20;0.20;;;21.30;87.80;;;;;;5053296;28;20833;-68
2023/04/21 09:37:12;;;;;;;0.38;0.30;;;21.10;88.60;;;;;;5035165;28;20700;-71
2023/04/21 09:39:38;;;;;;;0.20;0.20;;;21.30;87.50;;;;;;5052120;28;20544;-70
2023/04/21 09:42:04;;;;;;;0.20;0.20;;;21.60;86.90;;;;;;5052726;28;20246;-71
2023/04/21 09:44:30;;;;;;;0.40;0.40;;;22.00;87.60;;;;;;5072962;28;20192;-70
2023/04/21 09:47:03;;;;;;;0.20;0.20;;;22.30;82.60;;;;;;5065425;28;20201;-70
2023/04/21 09:49:30;;;;;;;0.20;0.20;;;22.10;81.50;;;;;;5072826;28;20565;-70
2023/04/21 09:52:00;;;;;;;0.57;0.40;;;21.90;80.50;;;;;;5072901;28;20695;-71
2023/04/21 09:54:31;;;;;;;0.43;0.43;;;22.10;82.90;;;;;;5072664;28;20565;-71
2023/04/21 09:57:02;;;;;;;0.20;0.20;;;22.10;78.10;;;;;;5072778;28;20572;-70
2023/04/21 09:59:44;;;;;;;0.25;0.25;;;22.10;81.00;;;;;;5072715;28;20192;-71
2023/04/21 10:02:11;;;;;;;0.20;0.20;;;22.20;81.80;;;;;;5072571;28;20208;-70
2023/04/21 10:04:41;;;;;;;0.28;0.28;;;22.80;79.70;;;;;;5072332;28;20247;-70
2023/04/21 10:07:08;;;;;;;0.20;0.20;;;23.20;76.80;;;;;;5072262;28;20193;-70
2023/04/21 10:10:05;;;;;;;0.50;0.50;;;23.80;78.00;;;;;;5076244;28;20196;-70
2023/04/21 10:12:32;;;;;;;0.15;0.15;;;23.60;74.10;;;;;;5060664;28;20208;-70
2023/04/21 10:15:05;;;;;;;0.20;0.20;;;23.80;70.80;;;;;;5076630;28;20209;-71
2023/04/21 10:17:35;;;;;;;0.20;0.20;;;23.30;69.60;;;;;;5076570;28;20711;-71
2023/04/21 10:20:06;;;;;;;0.22;0.22;;;22.90;73.50;;;;;;5076629;28;20193;-70
2023/04/21 10:22:34;;;;;;;0.10;0.10;;;22.90;77.10;;;;;;5057797;28;20208;-71
2023/04/21 10:25:02;;;;;;;8.98;0.70;;;23.70;75.00;;;;;;5076426;28;20709;-70
2023/04/21 10:27:49;;;;;;;0.20;0.20;;;24.10;72.50;;;;;;5059672;28;20543;-71
2023/04/21 10:30:25;;;;;;;0.50;0.50;;;24.30;69.00;;;;;;5056393;28;20185;-71
2023/04/21 10:33:04;;;;;;;0.35;0.35;;;23.70;71.40;;;;;;5056450;28;20189;-70
2023/04/21 10:35:57;;;;;;;0.20;0.20;;;24.30;70.80;;;;;;5056255;28;20624;-71
2023/04/21 10:38:34;;;;;;;0.10;0.10;;;24.90;69.50;;;;;;5054988;28;20288;-71
2023/04/21 10:41:36;;;;;;;0.30;0.30;;;25.10;68.20;;;;;;5076113;28;20193;-72
2023/04/21 10:44:12;;;;;;;0.10;0.10;;;25.30;64.80;;;;;;5056182;28;20656;-70
2023/04/21 10:46:40;;;;;;;0.20;0.20;;;24.90;64.00;;;;;;5038324;28;20721;-70
2023/04/21 10:49:11;;;;;;;0.20;0.20;;;25.10;65.70;;;;;;5056149;28;20613;-71
2023/04/21 10:52:01;;;;;;;0.25;0.17;;;25.20;69.10;;;;;;5055812;28;20197;-71
2023/04/21 10:54:45;;;;;;;0.20;0.20;;;25.60;68.00;;;;;;5048060;28;20231;-71
2023/04/21 10:57:15;;;;;;;0.10;0.10;;;25.80;64.90;;;;;;5055740;28;20786;-71
2023/04/21 10:59:42;;;;;;;0.10;0.10;;;25.90;68.20;;;;;;5055763;28;20688;-68
2023/04/21 11:02:10;;;;;;;0.20;0.20;;;25.90;67.10;;;;;;5055288;28;20668;-71
2023/04/21 11:04:43;;;;;;;0.20;0.20;;;25.60;65.30;;;;;;5068966;28;20231;-71
2023/04/21 11:07:17;;;;;;;0.17;0.17;;;24.80;68.00;;;;;;5075670;28;20558;-71
2023/04/21 11:09:45;;;;;;;0.20;0.20;;;24.60;67.60;;;;;;5075672;28;20262;-72
2023/04/21 11:12:19;;;;;;;0.20;0.20;;;24.30;67.40;;;;;;5075394;28;20560;-71
2023/04/21 11:14:46;;;;;;;0.20;0.20;;;24.40;67.60;;;;;;5075598;28;20717;-71
2023/04/21 11:17:17;;;;;;;0.10;0.10;;;24.40;65.40;;;;;;5075613;28;20282;-70
2023/04/21 11:20:03;;;;;;;0.20;0.20;;;23.90;67.30;;;;;;5075228;28;20208;-70
2023/04/21 11:22:29;;;;;;;0.20;0.20;;;23.50;69.50;;;;;;5075214;28;20207;-71
2023/04/21 11:24:56;;;;;;;0.10;0.10;;;24.00;66.80;;;;;;5075496;28;20263;-71
2023/04/21 11:27:25;;;;;;;0.20;0.20;;;23.80;65.90;;;;;;5075158;28;20188;-71
2023/04/21 11:29:51;;;;;;;0.40;0.40;;;23.50;69.30;;;;;;5075421;28;20251;-71
2023/04/21 11:32:17;;;;;;;0.20;0.20;;;24.00;67.80;;;;;;5075209;28;20197;-71
2023/04/21 11:34:43;;;;;;;0.17;0.17;;;24.20;63.00;;;;;;5074939;28;20197;-71
2023/04/21 11:37:20;;;;;;;0.22;0.22;;;23.40;65.90;;;;;;5057261;28;20638;-71
2023/04/21 11:39:46;;;;;;;0.13;0.13;;;24.00;67.90;;;;;;5071704;28;20193;-71
2023/04/21 11:42:20;;;;;;;0.15;0.15;;;24.60;64.70;;;;;;5057068;28;20647;-71
2023/04/21 11:44:46;;;;;;;0.20;0.20;;;25.10;64.20;;;;;;5075143;28;20216;-71
2023/04/21 11:47:18;;;;;;;0.35;0.30;;;25.20;63.80;;;;;;5075005;28;20197;-71
2023/04/21 11:49:48;;;;;;;8.48;1.05;;;25.60;63.80;;;;;;5056903;28;20197;-71
2023/04/21 11:52:22;;;;;;;0.10;0.10;;;25.00;61.70;;;;;;5056984;28;20270;-71
2023/04/21 11:54:50;;;;;;;0.10;0.10;;;25.20;61.80;;;;;;5074637;28;20185;-71
2023/04/21 11:57:18;;;;;;;0.15;0.15;;;25.10;64.60;;;;;;5074205;28;20200;-71
2023/04/21 11:59:45;;;;;;;0.10;0.10;;;24.40;62.10;;;;;;5074472;28;20224;-73
2023/04/21 12:02:20;;;;;;;0.20;0.20;;;24.70;63.70;;;;;;5074495;28;20287;-71
2023/04/21 12:05:03;;;;;;;0.10;0.10;;;24.60;61.70;;;;;;5075336;28;20618;-71
2023/04/21 12:07:31;;;;;;;0.10;0.10;;;24.90;60.60;;;;;;5074334;28;20212;-74
2023/04/21 12:09:57;;;;;;;0.20;0.20;;;25.20;62.20;;;;;;5074513;28;20181;-72
2023/04/21 12:12:23;;;;;;;0.17;0.17;;;25.10;59.80;;;;;;5074268;28;20198;-71
2023/04/21 12:14:50;;;;;;;1.65;1.05;;;24.80;60.80;;;;;;5074507;28;20272;-71
2023/04/21 12:17:16;;;;;;;0.13;0.13;;;24.40;59.30;;;;;;5074421;28;20288;-71
2023/04/21 12:19:42;;;;;;;0.25;0.25;;;24.00;64.40;;;;;;5074092;28;20665;-71
2023/04/21 12:22:13;;;;;;;0.98;0.47;;;24.10;60.50;;;;;;5074082;28;20686;-70
2023/04/21 12:24:40;;;;;;;0.10;0.10;;;24.50;63.90;;;;;;5056187;28;20279;-71
2023/04/21 12:27:06;;;;;;;0.80;0.70;;;25.10;62.50;;;;;;5074096;28;20189;-71
2023/04/21 12:29:36;;;;;;;3.72;0.70;;;25.40;62.60;;;;;;5074051;28;20200;-72
2023/04/21 12:32:03;;;;;;;0.10;0.10;;;25.10;60.40;;;;;;5073477;28;20197;-71
2023/04/21 12:34:28;;;;;;;0.30;0.30;;;24.90;61.30;;;;;;5073862;28;20195;-71
2023/04/21 12:36:54;;;;;;;0.20;0.20;;;24.80;59.50;;;;;;5074063;28;20189;-71
2023/04/21 12:39:21;;;;;;;0.20;0.20;;;24.10;60.50;;;;;;5073879;28;20620;-72
2023/04/21 12:41:47;;;;;;;0.30;0.30;;;24.10;62.60;;;;;;5074078;28;20197;-71
2023/04/21 12:44:13;;;;;;;0.70;0.52;;;24.20;60.60;;;;;;5073903;28;20243;-71
2023/04/21 12:46:40;;;;;;;0.20;0.20;;;24.50;59.70;;;;;;5072949;28;20200;-72
2023/04/21 12:49:09;;;;;;;0.20;0.20;;;24.70;60.00;;;;;;5055618;28;20284;-71
2023/04/21 12:51:35;;;;;;;0.20;0.20;;;24.60;60.10;;;;;;5073512;28;20193;-72
2023/04/21 12:54:02;;;;;;;0.10;0.10;;;24.40;60.80;;;;;;5073773;28;20558;-72